Allensville, Ohio
Current Conditions -  °F | °C
As of 10:55 AM on Saturday 20 Dec 2014 (Local Time) from KUNI Reporting Station
Overcast Overcast  
Wind Chill: 26°   Ceiling: 1700
Heat Index: 31°   Visibility: 10mi
Dew Point: 24°   Wind: 5mph
Humidity: 76%   Direction: 30°NNE
Pressure: 30.27"   Gusts: NA
Location:  39.2719°N, 82.4596°W
Report Text: KUNI 201555Z AUTO 03004KT 10SM OVC017 M01/M04 A3027 RMK AO2 T10061043
Loading
Personal Weather Stations






























Interactive Weather Map New forecast layout! Learn more

10-Day Weather Forecast

Advertisements
Track Severe Weather on mobile